sensor_id;sensor_type;location;lat;lon;timestamp;P1;durP1;ratioP1;P2;durP2;ratioP2
24677;SDS011;12800;53.094;8.778;2022-09-30T00:01:22;4.33;;;3.93;;
24677;SDS011;12800;53.094;8.778;2022-09-30T00:03:52;7.67;;;4.23;;
24677;SDS011;12800;53.094;8.778;2022-09-30T00:06:18;4.10;;;3.77;;
24677;SDS011;12800;53.094;8.778;2022-09-30T00:08:45;4.47;;;3.60;;
24677;SDS011;12800;53.094;8.778;2022-09-30T00:11:12;4.40;;;4.00;;
24677;SDS011;12800;53.094;8.778;2022-09-30T00:13:43;6.20;;;4.40;;
24677;SDS011;12800;53.094;8.778;2022-09-30T00:16:10;4.10;;;3.70;;
24677;SDS011;12800;53.094;8.778;2022-09-30T00:18:38;4.30;;;3.90;;
24677;SDS011;12800;53.094;8.778;2022-09-30T00:21:04;4.17;;;3.77;;
24677;SDS011;12800;53.094;8.778;2022-09-30T00:23:31;3.90;;;3.47;;
24677;SDS011;12800;53.094;8.778;2022-09-30T00:25:58;7.50;;;3.80;;
24677;SDS011;12800;53.094;8.778;2022-09-30T00:28:26;4.27;;;3.67;;
24677;SDS011;12800;53.094;8.778;2022-09-30T00:30:52;4.00;;;3.53;;
24677;SDS011;12800;53.094;8.778;2022-09-30T00:33:18;4.97;;;3.50;;
24677;SDS011;12800;53.094;8.778;2022-09-30T00:35:44;4.03;;;3.63;;
24677;SDS011;12800;53.094;8.778;2022-09-30T00:38:10;4.93;;;3.80;;
24677;SDS011;12800;53.094;8.778;2022-09-30T00:40:39;6.50;;;4.53;;
24677;SDS011;12800;53.094;8.778;2022-09-30T00:43:12;4.10;;;3.70;;
24677;SDS011;12800;53.094;8.778;2022-09-30T00:45:41;5.40;;;4.00;;
24677;SDS011;12800;53.094;8.778;2022-09-30T00:48:16;4.17;;;3.30;;
24677;SDS011;12800;53.094;8.778;2022-09-30T00:50:48;4.53;;;3.93;;
24677;SDS011;12800;53.094;8.778;2022-09-30T00:53:24;4.57;;;4.17;;
24677;SDS011;12800;53.094;8.778;2022-09-30T00:55:58;4.73;;;3.90;;
24677;SDS011;12800;53.094;8.778;2022-09-30T01:00:59;4.17;;;3.73;;
24677;SDS011;12800;53.094;8.778;2022-09-30T01:03:34;4.17;;;3.77;;
24677;SDS011;12800;53.094;8.778;2022-09-30T01:06:04;5.17;;;3.87;;
24677;SDS011;12800;53.094;8.778;2022-09-30T01:08:30;4.60;;;4.20;;
24677;SDS011;12800;53.094;8.778;2022-09-30T01:11:00;8.33;;;3.80;;
24677;SDS011;12800;53.094;8.778;2022-09-30T01:13:25;5.60;;;4.03;;
24677;SDS011;12800;53.094;8.778;2022-09-30T01:18:40;4.80;;;4.40;;
24677;SDS011;12800;53.094;8.778;2022-09-30T01:24:34;4.53;;;4.13;;
24677;SDS011;12800;53.094;8.778;2022-09-30T01:27:34;5.10;;;4.60;;
24677;SDS011;12800;53.094;8.778;2022-09-30T01:44:54;6.60;;;4.70;;
24677;SDS011;12800;53.094;8.778;2022-09-30T01:47:56;4.63;;;4.23;;
24677;SDS011;12800;53.094;8.778;2022-09-30T01:53:20;7.17;;;4.40;;
24677;SDS011;12800;53.094;8.778;2022-09-30T01:55:56;4.87;;;4.43;;
24677;SDS011;12800;53.094;8.778;2022-09-30T01:58:50;7.40;;;4.50;;
24677;SDS011;12800;53.094;8.778;2022-09-30T02:01:54;6.30;;;4.63;;
24677;SDS011;12800;53.094;8.778;2022-09-30T02:04:47;5.90;;;4.93;;
24677;SDS011;12800;53.094;8.778;2022-09-30T02:07:32;5.57;;;5.00;;
24677;SDS011;12800;53.094;8.778;2022-09-30T02:10:08;5.13;;;4.63;;
24677;SDS011;12800;53.094;8.778;2022-09-30T02:12:56;4.70;;;4.30;;
24677;SDS011;12800;53.094;8.778;2022-09-30T02:15:29;4.87;;;4.33;;
24677;SDS011;12800;53.094;8.778;2022-09-30T02:18:05;5.30;;;4.20;;
24677;SDS011;12800;53.094;8.778;2022-09-30T02:21:01;5.83;;;4.40;;
24677;SDS011;12800;53.094;8.778;2022-09-30T02:23:35;8.37;;;4.83;;
24677;SDS011;12800;53.094;8.778;2022-09-30T02:26:12;5.40;;;4.90;;
24677;SDS011;12800;53.094;8.778;2022-09-30T02:28:44;6.57;;;4.43;;
24677;SDS011;12800;53.094;8.778;2022-09-30T02:31:13;5.03;;;4.53;;
24677;SDS011;12800;53.094;8.778;2022-09-30T02:33:45;6.27;;;4.50;;
24677;SDS011;12800;53.094;8.778;2022-09-30T02:36:16;6.40;;;4.70;;
24677;SDS011;12800;53.094;8.778;2022-09-30T02:41:50;5.90;;;5.30;;
24677;SDS011;12800;53.094;8.778;2022-09-30T02:44:19;6.30;;;4.80;;
24677;SDS011;12800;53.094;8.778;2022-09-30T02:46:51;7.00;;;5.63;;
24677;SDS011;12800;53.094;8.778;2022-09-30T02:49:35;5.73;;;4.87;;
24677;SDS011;12800;53.094;8.778;2022-09-30T02:59:53;5.93;;;5.43;;
24677;SDS011;12800;53.094;8.778;2022-09-30T03:02:19;6.00;;;5.40;;
24677;SDS011;12800;53.094;8.778;2022-09-30T03:04:46;5.83;;;5.27;;
24677;SDS011;12800;53.094;8.778;2022-09-30T03:07:13;6.80;;;5.70;;
24677;SDS011;12800;53.094;8.778;2022-09-30T03:09:39;5.50;;;4.83;;
24677;SDS011;12800;53.094;8.778;2022-09-30T03:14:58;6.20;;;5.57;;
24677;SDS011;12800;53.094;8.778;2022-09-30T03:28:27;7.00;;;5.90;;
24677;SDS011;12800;53.094;8.778;2022-09-30T03:36:57;6.30;;;5.70;;
24677;SDS011;12800;53.094;8.778;2022-09-30T03:39:45;6.73;;;5.23;;
24677;SDS011;12800;53.094;8.778;2022-09-30T03:42:24;6.50;;;5.90;;
24677;SDS011;12800;53.094;8.778;2022-09-30T03:47:48;7.93;;;5.40;;
24677;SDS011;12800;53.094;8.778;2022-09-30T03:50:18;6.43;;;5.73;;
24677;SDS011;12800;53.094;8.778;2022-09-30T03:52:46;6.00;;;5.20;;
24677;SDS011;12800;53.094;8.778;2022-09-30T03:55:13;6.37;;;5.57;;
24677;SDS011;12800;53.094;8.778;2022-09-30T03:57:40;6.20;;;5.60;;
24677;SDS011;12800;53.094;8.778;2022-09-30T04:00:09;7.50;;;5.97;;
24677;SDS011;12800;53.094;8.778;2022-09-30T04:02:37;8.30;;;5.37;;
24677;SDS011;12800;53.094;8.778;2022-09-30T04:05:03;7.00;;;5.57;;
24677;SDS011;12800;53.094;8.778;2022-09-30T04:07:29;5.73;;;5.23;;
24677;SDS011;12800;53.094;8.778;2022-09-30T04:09:55;7.20;;;6.23;;
24677;SDS011;12800;53.094;8.778;2022-09-30T04:12:21;9.00;;;6.90;;
24677;SDS011;12800;53.094;8.778;2022-09-30T04:14:47;7.97;;;6.83;;
24677;SDS011;12800;53.094;8.778;2022-09-30T04:17:13;8.23;;;6.23;;
24677;SDS011;12800;53.094;8.778;2022-09-30T04:19:39;8.23;;;6.17;;
24677;SDS011;12800;53.094;8.778;2022-09-30T04:22:05;6.87;;;6.00;;
24677;SDS011;12800;53.094;8.778;2022-09-30T04:24:32;6.67;;;5.90;;
24677;SDS011;12800;53.094;8.778;2022-09-30T04:26:57;6.33;;;5.73;;
24677;SDS011;12800;53.094;8.778;2022-09-30T04:29:23;7.60;;;5.93;;
24677;SDS011;12800;53.094;8.778;2022-09-30T04:31:49;6.80;;;6.10;;
24677;SDS011;12800;53.094;8.778;2022-09-30T04:34:14;6.47;;;5.83;;
24677;SDS011;12800;53.094;8.778;2022-09-30T04:36:40;7.47;;;6.10;;
24677;SDS011;12800;53.094;8.778;2022-09-30T04:39:05;6.33;;;5.47;;
24677;SDS011;12800;53.094;8.778;2022-09-30T04:41:31;6.80;;;6.10;;
24677;SDS011;12800;53.094;8.778;2022-09-30T04:43:58;8.00;;;6.03;;
24677;SDS011;12800;53.094;8.778;2022-09-30T04:46:24;7.23;;;6.00;;
24677;SDS011;12800;53.094;8.778;2022-09-30T04:48:50;7.53;;;6.10;;
24677;SDS011;12800;53.094;8.778;2022-09-30T04:51:18;6.90;;;6.30;;
24677;SDS011;12800;53.094;8.778;2022-09-30T04:53:46;7.53;;;6.50;;
24677;SDS011;12800;53.094;8.778;2022-09-30T04:56:12;6.83;;;5.90;;
24677;SDS011;12800;53.094;8.778;2022-09-30T04:58:38;6.97;;;6.27;;
24677;SDS011;12800;53.094;8.778;2022-09-30T05:01:08;6.60;;;5.80;;
24677;SDS011;12800;53.094;8.778;2022-09-30T05:03:38;7.67;;;6.37;;
24677;SDS011;12800;53.094;8.778;2022-09-30T05:06:05;7.57;;;6.10;;
24677;SDS011;12800;53.094;8.778;2022-09-30T05:08:31;6.97;;;6.30;;
24677;SDS011;12800;53.094;8.778;2022-09-30T05:11:05;10.47;;;6.10;;
24677;SDS011;12800;53.094;8.778;2022-09-30T05:13:35;8.10;;;6.57;;
24677;SDS011;12800;53.094;8.778;2022-09-30T05:16:03;7.60;;;6.33;;
24677;SDS011;12800;53.094;8.778;2022-09-30T05:18:29;6.93;;;6.23;;
24677;SDS011;12800;53.094;8.778;2022-09-30T05:20:55;8.30;;;6.30;;
24677;SDS011;12800;53.094;8.778;2022-09-30T05:23:21;8.60;;;7.07;;
24677;SDS011;12800;53.094;8.778;2022-09-30T05:25:48;7.67;;;6.87;;
24677;SDS011;12800;53.094;8.778;2022-09-30T05:28:15;6.97;;;6.27;;
24677;SDS011;12800;53.094;8.778;2022-09-30T05:30:41;7.60;;;6.80;;
24677;SDS011;12800;53.094;8.778;2022-09-30T05:33:08;8.10;;;7.30;;
24677;SDS011;12800;53.094;8.778;2022-09-30T05:35:34;7.30;;;6.40;;
24677;SDS011;12800;53.094;8.778;2022-09-30T05:38:00;11.30;;;7.60;;
24677;SDS011;12800;53.094;8.778;2022-09-30T05:40:28;9.00;;;7.37;;
24677;SDS011;12800;53.094;8.778;2022-09-30T05:42:57;7.47;;;6.67;;
24677;SDS011;12800;53.094;8.778;2022-09-30T05:45:24;8.97;;;8.10;;
24677;SDS011;12800;53.094;8.778;2022-09-30T05:47:51;9.93;;;7.30;;
24677;SDS011;12800;53.094;8.778;2022-09-30T05:50:17;8.77;;;7.60;;
24677;SDS011;12800;53.094;8.778;2022-09-30T05:52:44;8.53;;;7.40;;
24677;SDS011;12800;53.094;8.778;2022-09-30T05:55:10;7.83;;;7.03;;
24677;SDS011;12800;53.094;8.778;2022-09-30T05:57:35;8.90;;;7.50;;
24677;SDS011;12800;53.094;8.778;2022-09-30T06:00:01;10.30;;;7.57;;
24677;SDS011;12800;53.094;8.778;2022-09-30T06:02:28;10.40;;;8.13;;
24677;SDS011;12800;53.094;8.778;2022-09-30T06:04:54;9.13;;;7.43;;
24677;SDS011;12800;53.094;8.778;2022-09-30T06:07:19;9.27;;;8.37;;
24677;SDS011;12800;53.094;8.778;2022-09-30T06:09:45;10.27;;;8.27;;
24677;SDS011;12800;53.094;8.778;2022-09-30T06:12:11;12.97;;;8.77;;
24677;SDS011;12800;53.094;8.778;2022-09-30T06:14:36;9.33;;;8.27;;
24677;SDS011;12800;53.094;8.778;2022-09-30T06:17:02;10.20;;;8.93;;
24677;SDS011;12800;53.094;8.778;2022-09-30T06:19:30;11.10;;;8.77;;
24677;SDS011;12800;53.094;8.778;2022-09-30T06:21:56;11.63;;;9.17;;
24677;SDS011;12800;53.094;8.778;2022-09-30T06:24:22;11.03;;;9.00;;
24677;SDS011;12800;53.094;8.778;2022-09-30T06:26:48;9.83;;;8.83;;
24677;SDS011;12800;53.094;8.778;2022-09-30T06:29:14;10.83;;;8.80;;
24677;SDS011;12800;53.094;8.778;2022-09-30T06:31:39;10.47;;;8.93;;
24677;SDS011;12800;53.094;8.778;2022-09-30T06:34:05;11.00;;;8.57;;
24677;SDS011;12800;53.094;8.778;2022-09-30T06:36:32;12.40;;;9.30;;
24677;SDS011;12800;53.094;8.778;2022-09-30T06:39:01;11.87;;;8.80;;
24677;SDS011;12800;53.094;8.778;2022-09-30T06:41:28;10.70;;;9.03;;
24677;SDS011;12800;53.094;8.778;2022-09-30T06:43:54;10.87;;;8.93;;
24677;SDS011;12800;53.094;8.778;2022-09-30T06:46:20;10.17;;;9.07;;
24677;SDS011;12800;53.094;8.778;2022-09-30T06:48:48;11.93;;;9.10;;
24677;SDS011;12800;53.094;8.778;2022-09-30T06:51:22;10.03;;;8.90;;
24677;SDS011;12800;53.094;8.778;2022-09-30T06:53:53;10.97;;;9.40;;
24677;SDS011;12800;53.094;8.778;2022-09-30T06:56:20;11.03;;;8.50;;
24677;SDS011;12800;53.094;8.778;2022-09-30T06:58:46;13.07;;;9.70;;
24677;SDS011;12800;53.094;8.778;2022-09-30T07:01:13;11.80;;;9.53;;
24677;SDS011;12800;53.094;8.778;2022-09-30T07:03:40;11.07;;;9.50;;
24677;SDS011;12800;53.094;8.778;2022-09-30T07:06:08;13.80;;;9.53;;
24677;SDS011;12800;53.094;8.778;2022-09-30T07:08:35;11.53;;;9.80;;
24677;SDS011;12800;53.094;8.778;2022-09-30T07:11:06;10.40;;;9.20;;
24677;SDS011;12800;53.094;8.778;2022-09-30T07:13:38;12.03;;;8.77;;
24677;SDS011;12800;53.094;8.778;2022-09-30T07:16:09;13.50;;;9.00;;
24677;SDS011;12800;53.094;8.778;2022-09-30T07:18:36;13.17;;;10.43;;
24677;SDS011;12800;53.094;8.778;2022-09-30T07:21:03;12.87;;;9.93;;
24677;SDS011;12800;53.094;8.778;2022-09-30T07:23:29;10.73;;;9.40;;
24677;SDS011;12800;53.094;8.778;2022-09-30T07:25:57;12.23;;;9.80;;
24677;SDS011;12800;53.094;8.778;2022-09-30T07:28:25;12.03;;;9.33;;
24677;SDS011;12800;53.094;8.778;2022-09-30T07:30:55;10.13;;;9.10;;
24677;SDS011;12800;53.094;8.778;2022-09-30T07:33:22;10.93;;;9.63;;
24677;SDS011;12800;53.094;8.778;2022-09-30T07:35:53;11.80;;;9.83;;
24677;SDS011;12800;53.094;8.778;2022-09-30T07:38:21;10.63;;;9.53;;
24677;SDS011;12800;53.094;8.778;2022-09-30T07:43:22;12.90;;;9.77;;
24677;SDS011;12800;53.094;8.778;2022-09-30T07:45:49;11.43;;;9.23;;
24677;SDS011;12800;53.094;8.778;2022-09-30T07:48:15;12.00;;;9.50;;
24677;SDS011;12800;53.094;8.778;2022-09-30T07:51:20;15.23;;;10.07;;
24677;SDS011;12800;53.094;8.778;2022-09-30T07:53:51;12.87;;;10.27;;
24677;SDS011;12800;53.094;8.778;2022-09-30T07:56:21;13.57;;;10.17;;
24677;SDS011;12800;53.094;8.778;2022-09-30T07:58:48;10.07;;;9.03;;
24677;SDS011;12800;53.094;8.778;2022-09-30T08:01:18;11.57;;;10.03;;
24677;SDS011;12800;53.094;8.778;2022-09-30T08:03:44;10.23;;;9.23;;
24677;SDS011;12800;53.094;8.778;2022-09-30T08:06:11;10.23;;;9.17;;
24677;SDS011;12800;53.094;8.778;2022-09-30T08:08:42;11.33;;;9.77;;
24677;SDS011;12800;53.094;8.778;2022-09-30T08:11:09;10.10;;;9.10;;
24677;SDS011;12800;53.094;8.778;2022-09-30T08:13:36;9.77;;;8.80;;
24677;SDS011;12800;53.094;8.778;2022-09-30T08:16:03;10.40;;;9.17;;
24677;SDS011;12800;53.094;8.778;2022-09-30T08:18:29;10.30;;;8.70;;
24677;SDS011;12800;53.094;8.778;2022-09-30T08:20:55;66.93;;;44.90;;
24677;SDS011;12800;53.094;8.778;2022-09-30T08:23:21;46.00;;;33.73;;
24677;SDS011;12800;53.094;8.778;2022-09-30T08:25:46;18.20;;;14.50;;
24677;SDS011;12800;53.094;8.778;2022-09-30T08:28:12;15.03;;;12.10;;
24677;SDS011;12800;53.094;8.778;2022-09-30T08:30:38;11.57;;;10.10;;
24677;SDS011;12800;53.094;8.778;2022-09-30T08:33:04;9.43;;;8.10;;
24677;SDS011;12800;53.094;8.778;2022-09-30T08:35:30;11.17;;;9.53;;
24677;SDS011;12800;53.094;8.778;2022-09-30T08:37:58;11.80;;;8.93;;
24677;SDS011;12800;53.094;8.778;2022-09-30T08:40:25;10.17;;;8.53;;
24677;SDS011;12800;53.094;8.778;2022-09-30T08:46:00;8.43;;;7.63;;
24677;SDS011;12800;53.094;8.778;2022-09-30T08:51:08;10.17;;;7.93;;
24677;SDS011;12800;53.094;8.778;2022-09-30T08:53:40;10.43;;;8.10;;
24677;SDS011;12800;53.094;8.778;2022-09-30T08:56:07;10.50;;;9.13;;
24677;SDS011;12800;53.094;8.778;2022-09-30T08:58:43;10.43;;;8.57;;
24677;SDS011;12800;53.094;8.778;2022-09-30T09:03:56;11.13;;;9.00;;
24677;SDS011;12800;53.094;8.778;2022-09-30T09:06:29;9.70;;;8.50;;
24677;SDS011;12800;53.094;8.778;2022-09-30T09:20:15;48.00;;;32.57;;
24677;SDS011;12800;53.094;8.778;2022-09-30T09:22:44;20.07;;;15.93;;
24677;SDS011;12800;53.094;8.778;2022-09-30T09:25:14;15.37;;;11.00;;
24677;SDS011;12800;53.094;8.778;2022-09-30T09:30:22;9.50;;;7.80;;
24677;SDS011;12800;53.094;8.778;2022-09-30T09:32:55;9.57;;;8.47;;
24677;SDS011;12800;53.094;8.778;2022-09-30T09:46:49;9.40;;;7.80;;
24677;SDS011;12800;53.094;8.778;2022-09-30T09:49:38;8.90;;;7.53;;
24677;SDS011;12800;53.094;8.778;2022-09-30T09:54:58;11.63;;;8.50;;
24677;SDS011;12800;53.094;8.778;2022-09-30T09:57:25;9.10;;;7.90;;
24677;SDS011;12800;53.094;8.778;2022-09-30T10:05:27;9.05;;;8.05;;
24677;SDS011;12800;53.094;8.778;2022-09-30T10:10:47;8.40;;;7.28;;
24677;SDS011;12800;53.094;8.778;2022-09-30T10:13:21;6.97;;;6.28;;
24677;SDS011;12800;53.094;8.778;2022-09-30T10:15:49;11.15;;;6.70;;
24677;SDS011;12800;53.094;8.778;2022-09-30T10:18:19;7.65;;;6.47;;
24677;SDS011;12800;53.094;8.778;2022-09-30T10:20:55;8.43;;;7.60;;
24677;SDS011;12800;53.094;8.778;2022-09-30T10:23:28;9.20;;;6.72;;
24677;SDS011;12800;53.094;8.778;2022-09-30T10:26:05;8.65;;;6.63;;
24677;SDS011;12800;53.094;8.778;2022-09-30T10:29:01;7.45;;;6.65;;
24677;SDS011;12800;53.094;8.778;2022-09-30T10:31:30;7.63;;;6.82;;
24677;SDS011;12800;53.094;8.778;2022-09-30T10:34:24;7.72;;;6.47;;
24677;SDS011;12800;53.094;8.778;2022-09-30T10:36:50;7.53;;;6.20;;
24677;SDS011;12800;53.094;8.778;2022-09-30T10:41:48;8.07;;;6.50;;
24677;SDS011;12800;53.094;8.778;2022-09-30T10:44:17;7.88;;;5.85;;
24677;SDS011;12800;53.094;8.778;2022-09-30T10:46:45;7.70;;;6.25;;
24677;SDS011;12800;53.094;8.778;2022-09-30T10:51:53;6.90;;;6.20;;
24677;SDS011;12800;53.094;8.778;2022-09-30T10:57:28;6.78;;;6.13;;
24677;SDS011;12800;53.094;8.778;2022-09-30T11:10:33;6.47;;;5.82;;
24677;SDS011;12800;53.094;8.778;2022-09-30T11:13:16;26.02;;;18.83;;
24677;SDS011;12800;53.094;8.778;2022-09-30T11:21:03;7.95;;;6.45;;
24677;SDS011;12800;53.094;8.778;2022-09-30T11:23:37;6.55;;;5.95;;
24677;SDS011;12800;53.094;8.778;2022-09-30T11:40:28;10.60;;;7.90;;
24677;SDS011;12800;53.094;8.778;2022-09-30T11:53:56;8.90;;;7.80;;
24677;SDS011;12800;53.094;8.778;2022-09-30T11:59:21;4.82;;;4.35;;
24677;SDS011;12800;53.094;8.778;2022-09-30T12:02:00;5.00;;;4.50;;
24677;SDS011;12800;53.094;8.778;2022-09-30T12:04:33;5.30;;;4.18;;
24677;SDS011;12800;53.094;8.778;2022-09-30T12:07:50;3.70;;;3.28;;
24677;SDS011;12800;53.094;8.778;2022-09-30T12:10:13;4.35;;;3.30;;
24677;SDS011;12800;53.094;8.778;2022-09-30T12:12:55;7.13;;;3.92;;
24677;SDS011;12800;53.094;8.778;2022-09-30T12:15:26;4.88;;;3.60;;
24677;SDS011;12800;53.094;8.778;2022-09-30T12:18:04;3.97;;;3.20;;
24677;SDS011;12800;53.094;8.778;2022-09-30T12:20:38;4.40;;;4.00;;
24677;SDS011;12800;53.094;8.778;2022-09-30T12:23:13;4.57;;;4.10;;
24677;SDS011;12800;53.094;8.778;2022-09-30T12:25:57;6.43;;;3.80;;
24677;SDS011;12800;53.094;8.778;2022-09-30T12:36:45;7.22;;;4.47;;
24677;SDS011;12800;53.094;8.778;2022-09-30T12:42:46;8.45;;;5.28;;
24677;SDS011;12800;53.094;8.778;2022-09-30T12:51:08;7.07;;;5.28;;
24677;SDS011;12800;53.094;8.778;2022-09-30T12:53:44;7.32;;;5.03;;
24677;SDS011;12800;53.094;8.778;2022-09-30T12:56:16;12.32;;;8.63;;
24677;SDS011;12800;53.094;8.778;2022-09-30T12:58:49;17.92;;;13.35;;
24677;SDS011;12800;53.094;8.778;2022-09-30T13:01:17;9.38;;;8.02;;
24677;SDS011;12800;53.094;8.778;2022-09-30T13:04:28;14.43;;;11.40;;
24677;SDS011;12800;53.094;8.778;2022-09-30T13:11:44;10.27;;;6.93;;
24677;SDS011;12800;53.094;8.778;2022-09-30T13:14:29;13.05;;;9.80;;
24677;SDS011;12800;53.094;8.778;2022-09-30T13:17:00;9.25;;;7.57;;
24677;SDS011;12800;53.094;8.778;2022-09-30T13:19:39;7.80;;;5.72;;
24677;SDS011;12800;53.094;8.778;2022-09-30T13:32:41;11.70;;;6.95;;
24677;SDS011;12800;53.094;8.778;2022-09-30T13:40:36;8.20;;;5.70;;
24677;SDS011;12800;53.094;8.778;2022-09-30T13:43:09;6.50;;;5.80;;
24677;SDS011;12800;53.094;8.778;2022-09-30T13:45:43;7.72;;;5.78;;
24677;SDS011;12800;53.094;8.778;2022-09-30T13:48:33;7.78;;;6.65;;
24677;SDS011;12800;53.094;8.778;2022-09-30T13:50:59;7.75;;;6.95;;
24677;SDS011;12800;53.094;8.778;2022-09-30T13:53:34;12.10;;;8.75;;
24677;SDS011;12800;53.094;8.778;2022-09-30T13:56:28;18.35;;;12.02;;
24677;SDS011;12800;53.094;8.778;2022-09-30T14:04:28;7.00;;;5.65;;
24677;SDS011;12800;53.094;8.778;2022-09-30T14:24:09;5.65;;;4.40;;
24677;SDS011;12800;53.094;8.778;2022-09-30T14:31:54;5.57;;;3.97;;
24677;SDS011;12800;53.094;8.778;2022-09-30T14:34:20;6.88;;;4.60;;
24677;SDS011;12800;53.094;8.778;2022-09-30T14:36:48;5.10;;;4.50;;
24677;SDS011;12800;53.094;8.778;2022-09-30T14:39:16;5.57;;;3.90;;
24677;SDS011;12800;53.094;8.778;2022-09-30T14:41:53;4.82;;;4.20;;
24677;SDS011;12800;53.094;8.778;2022-09-30T14:44:22;6.45;;;3.75;;
24677;SDS011;12800;53.094;8.778;2022-09-30T14:46:51;5.60;;;3.80;;
24677;SDS011;12800;53.094;8.778;2022-09-30T14:49:24;9.40;;;5.88;;
24677;SDS011;12800;53.094;8.778;2022-09-30T14:51:56;4.97;;;3.92;;
24677;SDS011;12800;53.094;8.778;2022-09-30T14:54:30;10.63;;;6.93;;
24677;SDS011;12800;53.094;8.778;2022-09-30T14:56:57;6.95;;;4.72;;
24677;SDS011;12800;53.094;8.778;2022-09-30T15:01:58;6.45;;;4.32;;
24677;SDS011;12800;53.094;8.778;2022-09-30T15:04:30;11.20;;;7.38;;
24677;SDS011;12800;53.094;8.778;2022-09-30T15:06:58;7.63;;;5.57;;
24677;SDS011;12800;53.094;8.778;2022-09-30T15:09:37;5.43;;;4.22;;
24677;SDS011;12800;53.094;8.778;2022-09-30T15:12:09;9.23;;;5.55;;
24677;SDS011;12800;53.094;8.778;2022-09-30T15:14:56;8.32;;;5.85;;
24677;SDS011;12800;53.094;8.778;2022-09-30T15:17:27;9.98;;;6.78;;
24677;SDS011;12800;53.094;8.778;2022-09-30T15:19:53;10.05;;;5.63;;
24677;SDS011;12800;53.094;8.778;2022-09-30T15:22:20;9.90;;;6.13;;
24677;SDS011;12800;53.094;8.778;2022-09-30T15:24:47;8.13;;;5.68;;
24677;SDS011;12800;53.094;8.778;2022-09-30T15:27:21;8.25;;;5.00;;
24677;SDS011;12800;53.094;8.778;2022-09-30T15:29:56;6.38;;;4.75;;
24677;SDS011;12800;53.094;8.778;2022-09-30T15:32:33;7.80;;;4.38;;
24677;SDS011;12800;53.094;8.778;2022-09-30T15:35:04;6.68;;;4.13;;
24677;SDS011;12800;53.094;8.778;2022-09-30T15:37:31;5.82;;;4.50;;
24677;SDS011;12800;53.094;8.778;2022-09-30T15:39:58;8.45;;;4.78;;
24677;SDS011;12800;53.094;8.778;2022-09-30T15:42:45;5.07;;;4.38;;
24677;SDS011;12800;53.094;8.778;2022-09-30T15:45:34;4.55;;;3.95;;
24677;SDS011;12800;53.094;8.778;2022-09-30T15:50:34;6.22;;;4.80;;
24677;SDS011;12800;53.094;8.778;2022-09-30T15:53:20;5.68;;;4.60;;
24677;SDS011;12800;53.094;8.778;2022-09-30T15:55:49;7.13;;;4.65;;
24677;SDS011;12800;53.094;8.778;2022-09-30T16:11:43;6.75;;;4.90;;
24677;SDS011;12800;53.094;8.778;2022-09-30T16:14:42;8.52;;;4.63;;
24677;SDS011;12800;53.094;8.778;2022-09-30T16:20:03;8.20;;;5.22;;
24677;SDS011;12800;53.094;8.778;2022-09-30T16:22:46;6.22;;;4.45;;
24677;SDS011;12800;53.094;8.778;2022-09-30T16:25:17;9.70;;;6.10;;
24677;SDS011;12800;53.094;8.778;2022-09-30T16:27:55;7.75;;;6.43;;
24677;SDS011;12800;53.094;8.778;2022-09-30T16:30:26;7.63;;;5.25;;
24677;SDS011;12800;53.094;8.778;2022-09-30T16:32:57;5.80;;;4.72;;
24677;SDS011;12800;53.094;8.778;2022-09-30T16:35:27;6.70;;;4.72;;
24677;SDS011;12800;53.094;8.778;2022-09-30T16:38:00;7.88;;;5.93;;
24677;SDS011;12800;53.094;8.778;2022-09-30T16:40:29;5.10;;;4.57;;
24677;SDS011;12800;53.094;8.778;2022-09-30T16:42:56;6.07;;;4.68;;
24677;SDS011;12800;53.094;8.778;2022-09-30T16:45:25;7.45;;;5.07;;
24677;SDS011;12800;53.094;8.778;2022-09-30T16:47:52;6.88;;;5.43;;
24677;SDS011;12800;53.094;8.778;2022-09-30T16:50:29;5.70;;;4.90;;
24677;SDS011;12800;53.094;8.778;2022-09-30T16:52:58;6.55;;;5.15;;
24677;SDS011;12800;53.094;8.778;2022-09-30T16:55:24;8.80;;;5.80;;
24677;SDS011;12800;53.094;8.778;2022-09-30T16:57:51;6.00;;;5.43;;
24677;SDS011;12800;53.094;8.778;2022-09-30T17:00:19;9.10;;;5.32;;
24677;SDS011;12800;53.094;8.778;2022-09-30T17:02:45;6.63;;;5.93;;
24677;SDS011;12800;53.094;8.778;2022-09-30T17:05:12;6.00;;;4.80;;
24677;SDS011;12800;53.094;8.778;2022-09-30T17:07:41;5.97;;;5.30;;
24677;SDS011;12800;53.094;8.778;2022-09-30T17:10:09;6.18;;;5.57;;
24677;SDS011;12800;53.094;8.778;2022-09-30T17:12:50;12.93;;;10.38;;
24677;SDS011;12800;53.094;8.778;2022-09-30T17:15:17;17.48;;;13.80;;
24677;SDS011;12800;53.094;8.778;2022-09-30T17:17:43;8.88;;;7.97;;
24677;SDS011;12800;53.094;8.778;2022-09-30T17:20:09;9.23;;;6.13;;
24677;SDS011;12800;53.094;8.778;2022-09-30T17:22:36;8.18;;;7.03;;
24677;SDS011;12800;53.094;8.778;2022-09-30T17:25:02;6.78;;;6.07;;
24677;SDS011;12800;53.094;8.778;2022-09-30T17:27:28;7.18;;;6.25;;
24677;SDS011;12800;53.094;8.778;2022-09-30T17:29:54;6.53;;;5.80;;
24677;SDS011;12800;53.094;8.778;2022-09-30T17:32:19;8.68;;;7.13;;
24677;SDS011;12800;53.094;8.778;2022-09-30T17:34:45;8.05;;;6.53;;
24677;SDS011;12800;53.094;8.778;2022-09-30T17:37:11;5.88;;;5.22;;
24677;SDS011;12800;53.094;8.778;2022-09-30T17:39:40;6.90;;;5.85;;
24677;SDS011;12800;53.094;8.778;2022-09-30T17:42:07;8.45;;;5.90;;
24677;SDS011;12800;53.094;8.778;2022-09-30T17:44:55;9.20;;;6.60;;
24677;SDS011;12800;53.094;8.778;2022-09-30T17:47:21;12.05;;;5.93;;
24677;SDS011;12800;53.094;8.778;2022-09-30T17:49:47;7.70;;;5.80;;
24677;SDS011;12800;53.094;8.778;2022-09-30T17:52:13;8.98;;;6.60;;
24677;SDS011;12800;53.094;8.778;2022-09-30T17:54:39;7.07;;;5.75;;
24677;SDS011;12800;53.094;8.778;2022-09-30T17:57:06;6.60;;;5.85;;
24677;SDS011;12800;53.094;8.778;2022-09-30T17:59:32;6.43;;;5.82;;
24677;SDS011;12800;53.094;8.778;2022-09-30T18:01:58;9.68;;;6.25;;
24677;SDS011;12800;53.094;8.778;2022-09-30T18:04:23;7.85;;;6.65;;
24677;SDS011;12800;53.094;8.778;2022-09-30T18:06:50;8.20;;;5.88;;
24677;SDS011;12800;53.094;8.778;2022-09-30T18:09:16;6.47;;;5.80;;
24677;SDS011;12800;53.094;8.778;2022-09-30T18:11:42;7.28;;;5.65;;
24677;SDS011;12800;53.094;8.778;2022-09-30T18:14:09;8.45;;;6.13;;
24677;SDS011;12800;53.094;8.778;2022-09-30T18:16:35;8.10;;;5.97;;
24677;SDS011;12800;53.094;8.778;2022-09-30T18:19:01;9.93;;;5.93;;
24677;SDS011;12800;53.094;8.778;2022-09-30T18:21:30;8.18;;;6.07;;
24677;SDS011;12800;53.094;8.778;2022-09-30T18:23:57;9.88;;;6.22;;
24677;SDS011;12800;53.094;8.778;2022-09-30T18:26:23;8.15;;;6.13;;
24677;SDS011;12800;53.094;8.778;2022-09-30T18:28:50;6.63;;;5.75;;
24677;SDS011;12800;53.094;8.778;2022-09-30T18:31:17;11.07;;;6.25;;
24677;SDS011;12800;53.094;8.778;2022-09-30T18:33:53;6.97;;;5.97;;
24677;SDS011;12800;53.094;8.778;2022-09-30T18:36:19;7.65;;;4.93;;
24677;SDS011;12800;53.094;8.778;2022-09-30T18:38:45;7.50;;;5.80;;
24677;SDS011;12800;53.094;8.778;2022-09-30T18:41:11;7.97;;;5.93;;
24677;SDS011;12800;53.094;8.778;2022-09-30T18:43:39;7.93;;;5.73;;
24677;SDS011;12800;53.094;8.778;2022-09-30T18:46:09;8.53;;;5.37;;
24677;SDS011;12800;53.094;8.778;2022-09-30T18:48:35;7.87;;;5.27;;
24677;SDS011;12800;53.094;8.778;2022-09-30T18:51:04;5.53;;;5.03;;
24677;SDS011;12800;53.094;8.778;2022-09-30T18:53:31;7.53;;;5.20;;
24677;SDS011;12800;53.094;8.778;2022-09-30T18:55:58;6.93;;;5.13;;
24677;SDS011;12800;53.094;8.778;2022-09-30T18:58:25;6.10;;;5.20;;
24677;SDS011;12800;53.094;8.778;2022-09-30T19:00:52;6.97;;;5.22;;
24677;SDS011;12800;53.094;8.778;2022-09-30T19:03:18;6.88;;;5.60;;
24677;SDS011;12800;53.094;8.778;2022-09-30T19:05:44;9.20;;;6.13;;
24677;SDS011;12800;53.094;8.778;2022-09-30T19:08:10;7.60;;;6.17;;
24677;SDS011;12800;53.094;8.778;2022-09-30T19:10:39;7.33;;;6.17;;